Pagrindinis puslapis
METAR-TAF:

METAR-TAF

Oro uostai :

San Joaquín, Bolivija

platuma: 13-04S, ilguma: 064-49W, Aukštis: 140 m

Dabartinis oras

Ataskaita buvo paskelbta 25 valandos ir 10 minutes, ne 15:00 UTC
Ramus vėjas
Temperatūra 32°C
Drėgmė 56%
Slėgis 1010 hPa
Matomumas 10 km arba daugiau

METAR: SLJO 241500Z 00000KT 9999 NSC 32/22 Q1010

Laikas: 12:10 (16:10 UTC)


TAF: trūkstamas

Orai ataskaitas ir orų prognozės (METAR, TAF).

turimą stotys yra geltonos ir raudonos taškus žemėlapyje.

Perkelti pele per norėdami pamatyti stoties vardą.

Tada spustelėkite, norėdami matyti oro stebėjimo ir prognozės.

Norėdami pakeisti žemėlapį: spustelėkite ant žalios mygtukų su juodo kryžiaus žemyn,; žalią mygtuką su brūkšneliu, jei norite nutolinti; arba žalių rodyklių gretimoms žemėlapius.


METAR-TAF: